sensor_id;sensor_type;location;lat;lon;timestamp;P1;durP1;ratioP1;P2;durP2;ratioP2
6372;SDS011;3219;51.362;7.074;2022-11-20T00:00:39;18.70;;;16.67;;
6372;SDS011;3219;51.362;7.074;2022-11-20T00:03:06;18.15;;;16.25;;
6372;SDS011;3219;51.362;7.074;2022-11-20T00:05:33;19.10;;;16.60;;
6372;SDS011;3219;51.362;7.074;2022-11-20T00:08:00;19.35;;;16.60;;
6372;SDS011;3219;51.362;7.074;2022-11-20T00:10:27;19.67;;;17.52;;
6372;SDS011;3219;51.362;7.074;2022-11-20T00:12:56;18.40;;;16.42;;
6372;SDS011;3219;51.362;7.074;2022-11-20T00:15:24;20.52;;;17.60;;
6372;SDS011;3219;51.362;7.074;2022-11-20T00:17:51;18.33;;;16.17;;
6372;SDS011;3219;51.362;7.074;2022-11-20T00:20:18;20.35;;;17.52;;
6372;SDS011;3219;51.362;7.074;2022-11-20T00:22:46;20.05;;;17.10;;
6372;SDS011;3219;51.362;7.074;2022-11-20T00:25:14;20.33;;;18.15;;
6372;SDS011;3219;51.362;7.074;2022-11-20T00:27:42;21.02;;;18.15;;
6372;SDS011;3219;51.362;7.074;2022-11-20T00:30:12;20.27;;;17.23;;
6372;SDS011;3219;51.362;7.074;2022-11-20T00:32:40;21.02;;;16.92;;
6372;SDS011;3219;51.362;7.074;2022-11-20T00:35:08;19.75;;;17.67;;
6372;SDS011;3219;51.362;7.074;2022-11-20T00:37:36;19.55;;;17.45;;
6372;SDS011;3219;51.362;7.074;2022-11-20T00:40:04;19.90;;;17.80;;
6372;SDS011;3219;51.362;7.074;2022-11-20T00:42:33;19.65;;;17.17;;
6372;SDS011;3219;51.362;7.074;2022-11-20T00:45:00;20.85;;;17.92;;
6372;SDS011;3219;51.362;7.074;2022-11-20T00:47:30;20.15;;;18.05;;
6372;SDS011;3219;51.362;7.074;2022-11-20T00:49:58;19.13;;;17.02;;
6372;SDS011;3219;51.362;7.074;2022-11-20T00:52:26;19.92;;;17.23;;
6372;SDS011;3219;51.362;7.074;2022-11-20T00:54:54;19.20;;;17.05;;
6372;SDS011;3219;51.362;7.074;2022-11-20T00:57:22;20.17;;;17.83;;
6372;SDS011;3219;51.362;7.074;2022-11-20T00:59:50;18.58;;;16.58;;
6372;SDS011;3219;51.362;7.074;2022-11-20T01:02:18;20.40;;;17.15;;
6372;SDS011;3219;51.362;7.074;2022-11-20T01:04:47;19.92;;;17.83;;
6372;SDS011;3219;51.362;7.074;2022-11-20T01:07:15;20.10;;;18.00;;
6372;SDS011;3219;51.362;7.074;2022-11-20T01:09:43;21.05;;;17.45;;
6372;SDS011;3219;51.362;7.074;2022-11-20T01:12:11;19.15;;;17.15;;
6372;SDS011;3219;51.362;7.074;2022-11-20T01:14:39;19.25;;;16.40;;
6372;SDS011;3219;51.362;7.074;2022-11-20T01:17:07;18.48;;;16.48;;
6372;SDS011;3219;51.362;7.074;2022-11-20T01:19:35;20.85;;;18.40;;
6372;SDS011;3219;51.362;7.074;2022-11-20T01:22:04;20.35;;;17.77;;
6372;SDS011;3219;51.362;7.074;2022-11-20T01:24:32;19.50;;;16.45;;
6372;SDS011;3219;51.362;7.074;2022-11-20T01:27:00;19.02;;;16.70;;
6372;SDS011;3219;51.362;7.074;2022-11-20T01:29:28;18.02;;;15.75;;
6372;SDS011;3219;51.362;7.074;2022-11-20T01:31:56;18.83;;;16.58;;
6372;SDS011;3219;51.362;7.074;2022-11-20T01:34:24;18.73;;;16.70;;
6372;SDS011;3219;51.362;7.074;2022-11-20T01:36:52;19.50;;;16.98;;
6372;SDS011;3219;51.362;7.074;2022-11-20T01:39:22;18.63;;;16.50;;
6372;SDS011;3219;51.362;7.074;2022-11-20T01:41:51;17.45;;;15.25;;
6372;SDS011;3219;51.362;7.074;2022-11-20T01:44:43;20.52;;;17.80;;
6372;SDS011;3219;51.362;7.074;2022-11-20T01:47:13;19.35;;;16.63;;
6372;SDS011;3219;51.362;7.074;2022-11-20T01:49:45;22.30;;;18.25;;
6372;SDS011;3219;51.362;7.074;2022-11-20T01:52:15;22.00;;;18.20;;
6372;SDS011;3219;51.362;7.074;2022-11-20T01:54:45;17.98;;;16.08;;
6372;SDS011;3219;51.362;7.074;2022-11-20T01:57:15;18.20;;;16.00;;
6372;SDS011;3219;51.362;7.074;2022-11-20T01:59:44;19.23;;;16.33;;
6372;SDS011;3219;51.362;7.074;2022-11-20T02:02:14;18.70;;;16.67;;
6372;SDS011;3219;51.362;7.074;2022-11-20T02:04:42;19.02;;;16.33;;
6372;SDS011;3219;51.362;7.074;2022-11-20T02:07:11;17.98;;;15.63;;
6372;SDS011;3219;51.362;7.074;2022-11-20T02:09:39;19.90;;;17.30;;
6372;SDS011;3219;51.362;7.074;2022-11-20T02:12:08;19.02;;;16.30;;
6372;SDS011;3219;51.362;7.074;2022-11-20T02:14:56;18.85;;;16.85;;
6372;SDS011;3219;51.362;7.074;2022-11-20T02:17:23;18.92;;;16.35;;
6372;SDS011;3219;51.362;7.074;2022-11-20T02:19:52;20.05;;;16.63;;
6372;SDS011;3219;51.362;7.074;2022-11-20T02:22:21;19.08;;;16.40;;
6372;SDS011;3219;51.362;7.074;2022-11-20T02:24:54;18.98;;;16.40;;
6372;SDS011;3219;51.362;7.074;2022-11-20T02:27:23;17.27;;;15.48;;
6372;SDS011;3219;51.362;7.074;2022-11-20T02:29:51;16.55;;;14.80;;
6372;SDS011;3219;51.362;7.074;2022-11-20T02:32:20;18.30;;;15.40;;
6372;SDS011;3219;51.362;7.074;2022-11-20T02:34:48;17.85;;;15.45;;
6372;SDS011;3219;51.362;7.074;2022-11-20T02:37:16;17.58;;;15.43;;
6372;SDS011;3219;51.362;7.074;2022-11-20T02:39:45;19.90;;;16.33;;
6372;SDS011;3219;51.362;7.074;2022-11-20T02:42:15;18.23;;;16.27;;
6372;SDS011;3219;51.362;7.074;2022-11-20T02:44:43;17.30;;;15.15;;
6372;SDS011;3219;51.362;7.074;2022-11-20T02:47:11;17.85;;;15.93;;
6372;SDS011;3219;51.362;7.074;2022-11-20T02:49:39;20.52;;;17.58;;
6372;SDS011;3219;51.362;7.074;2022-11-20T02:52:07;18.80;;;16.77;;
6372;SDS011;3219;51.362;7.074;2022-11-20T02:54:35;19.63;;;17.15;;
6372;SDS011;3219;51.362;7.074;2022-11-20T02:57:03;20.45;;;17.77;;
6372;SDS011;3219;51.362;7.074;2022-11-20T02:59:32;21.27;;;18.90;;
6372;SDS011;3219;51.362;7.074;2022-11-20T03:02:00;21.60;;;17.77;;
6372;SDS011;3219;51.362;7.074;2022-11-20T03:04:28;21.50;;;18.10;;
6372;SDS011;3219;51.362;7.074;2022-11-20T03:06:56;21.48;;;18.08;;
6372;SDS011;3219;51.362;7.074;2022-11-20T03:09:24;22.13;;;18.75;;
6372;SDS011;3219;51.362;7.074;2022-11-20T03:11:52;21.50;;;18.40;;
6372;SDS011;3219;51.362;7.074;2022-11-20T03:14:20;21.63;;;18.63;;
6372;SDS011;3219;51.362;7.074;2022-11-20T03:16:49;22.10;;;18.83;;
6372;SDS011;3219;51.362;7.074;2022-11-20T03:19:17;21.83;;;18.77;;
6372;SDS011;3219;51.362;7.074;2022-11-20T03:21:45;22.83;;;18.17;;
6372;SDS011;3219;51.362;7.074;2022-11-20T03:24:13;22.02;;;18.65;;
6372;SDS011;3219;51.362;7.074;2022-11-20T03:26:42;22.95;;;19.17;;
6372;SDS011;3219;51.362;7.074;2022-11-20T03:29:09;21.65;;;19.33;;
6372;SDS011;3219;51.362;7.074;2022-11-20T03:31:38;22.75;;;19.85;;
6372;SDS011;3219;51.362;7.074;2022-11-20T03:34:08;22.30;;;18.55;;
6372;SDS011;3219;51.362;7.074;2022-11-20T03:36:37;23.88;;;19.50;;
6372;SDS011;3219;51.362;7.074;2022-11-20T03:39:05;21.33;;;18.02;;
6372;SDS011;3219;51.362;7.074;2022-11-20T03:41:35;21.00;;;17.85;;
6372;SDS011;3219;51.362;7.074;2022-11-20T03:44:04;23.63;;;18.73;;
6372;SDS011;3219;51.362;7.074;2022-11-20T03:46:33;24.23;;;18.88;;
6372;SDS011;3219;51.362;7.074;2022-11-20T03:49:01;21.50;;;17.48;;
6372;SDS011;3219;51.362;7.074;2022-11-20T03:51:30;22.92;;;19.10;;
6372;SDS011;3219;51.362;7.074;2022-11-20T03:53:59;20.63;;;18.00;;
6372;SDS011;3219;51.362;7.074;2022-11-20T03:56:28;20.17;;;16.90;;
6372;SDS011;3219;51.362;7.074;2022-11-20T03:58:56;25.23;;;20.00;;
6372;SDS011;3219;51.362;7.074;2022-11-20T04:01:25;21.63;;;18.42;;
6372;SDS011;3219;51.362;7.074;2022-11-20T04:03:54;23.15;;;19.02;;
6372;SDS011;3219;51.362;7.074;2022-11-20T04:06:23;20.63;;;17.77;;
6372;SDS011;3219;51.362;7.074;2022-11-20T04:08:53;16.60;;;14.52;;
6372;SDS011;3219;51.362;7.074;2022-11-20T04:11:22;17.38;;;14.82;;
6372;SDS011;3219;51.362;7.074;2022-11-20T04:13:50;21.27;;;17.25;;
6372;SDS011;3219;51.362;7.074;2022-11-20T04:16:19;23.65;;;18.25;;
6372;SDS011;3219;51.362;7.074;2022-11-20T04:18:50;22.10;;;18.63;;
6372;SDS011;3219;51.362;7.074;2022-11-20T04:21:19;20.77;;;17.95;;
6372;SDS011;3219;51.362;7.074;2022-11-20T04:23:47;19.38;;;16.90;;
6372;SDS011;3219;51.362;7.074;2022-11-20T04:26:16;20.70;;;17.10;;
6372;SDS011;3219;51.362;7.074;2022-11-20T04:28:44;20.45;;;16.55;;
6372;SDS011;3219;51.362;7.074;2022-11-20T04:31:13;19.13;;;17.10;;
6372;SDS011;3219;51.362;7.074;2022-11-20T04:33:41;19.50;;;16.20;;
6372;SDS011;3219;51.362;7.074;2022-11-20T04:36:10;20.48;;;16.80;;
6372;SDS011;3219;51.362;7.074;2022-11-20T04:38:39;22.17;;;17.55;;
6372;SDS011;3219;51.362;7.074;2022-11-20T04:41:08;19.08;;;16.45;;
6372;SDS011;3219;51.362;7.074;2022-11-20T04:43:40;21.50;;;16.77;;
6372;SDS011;3219;51.362;7.074;2022-11-20T04:46:07;20.25;;;16.80;;
6372;SDS011;3219;51.362;7.074;2022-11-20T04:48:35;18.83;;;16.83;;
6372;SDS011;3219;51.362;7.074;2022-11-20T04:51:04;19.65;;;17.20;;
6372;SDS011;3219;51.362;7.074;2022-11-20T04:53:32;19.25;;;17.00;;
6372;SDS011;3219;51.362;7.074;2022-11-20T04:56:00;19.58;;;16.90;;
6372;SDS011;3219;51.362;7.074;2022-11-20T04:58:28;19.92;;;17.42;;
6372;SDS011;3219;51.362;7.074;2022-11-20T05:01:01;19.17;;;17.10;;
6372;SDS011;3219;51.362;7.074;2022-11-20T05:03:30;21.02;;;17.05;;
6372;SDS011;3219;51.362;7.074;2022-11-20T05:05:59;22.73;;;18.30;;
6372;SDS011;3219;51.362;7.074;2022-11-20T05:08:27;22.05;;;17.90;;
6372;SDS011;3219;51.362;7.074;2022-11-20T05:10:59;20.50;;;17.33;;
6372;SDS011;3219;51.362;7.074;2022-11-20T05:13:27;21.08;;;17.70;;
6372;SDS011;3219;51.362;7.074;2022-11-20T05:15:55;20.58;;;18.17;;
6372;SDS011;3219;51.362;7.074;2022-11-20T05:18:24;20.35;;;17.75;;
6372;SDS011;3219;51.362;7.074;2022-11-20T05:20:54;20.75;;;17.27;;
6372;SDS011;3219;51.362;7.074;2022-11-20T05:23:22;19.17;;;16.65;;
6372;SDS011;3219;51.362;7.074;2022-11-20T05:25:51;20.08;;;17.15;;
6372;SDS011;3219;51.362;7.074;2022-11-20T05:28:19;20.45;;;17.45;;
6372;SDS011;3219;51.362;7.074;2022-11-20T05:30:47;20.33;;;17.15;;
6372;SDS011;3219;51.362;7.074;2022-11-20T05:33:15;21.45;;;18.08;;
6372;SDS011;3219;51.362;7.074;2022-11-20T05:35:45;19.08;;;17.08;;
6372;SDS011;3219;51.362;7.074;2022-11-20T05:38:13;21.63;;;18.30;;
6372;SDS011;3219;51.362;7.074;2022-11-20T05:40:41;20.20;;;17.55;;
6372;SDS011;3219;51.362;7.074;2022-11-20T05:43:09;22.00;;;18.73;;
6372;SDS011;3219;51.362;7.074;2022-11-20T05:45:37;20.63;;;18.25;;
6372;SDS011;3219;51.362;7.074;2022-11-20T05:48:05;20.35;;;17.60;;
6372;SDS011;3219;51.362;7.074;2022-11-20T05:50:33;20.42;;;17.83;;
6372;SDS011;3219;51.362;7.074;2022-11-20T05:53:02;21.63;;;19.33;;
6372;SDS011;3219;51.362;7.074;2022-11-20T05:55:30;20.52;;;17.95;;
6372;SDS011;3219;51.362;7.074;2022-11-20T05:57:58;21.83;;;18.50;;
6372;SDS011;3219;51.362;7.074;2022-11-20T06:00:26;21.45;;;19.25;;
6372;SDS011;3219;51.362;7.074;2022-11-20T06:02:54;21.38;;;17.70;;
6372;SDS011;3219;51.362;7.074;2022-11-20T06:05:22;21.63;;;17.75;;
6372;SDS011;3219;51.362;7.074;2022-11-20T06:07:49;20.42;;;17.73;;
6372;SDS011;3219;51.362;7.074;2022-11-20T06:10:19;20.05;;;17.45;;
6372;SDS011;3219;51.362;7.074;2022-11-20T06:12:47;20.17;;;17.02;;
6372;SDS011;3219;51.362;7.074;2022-11-20T06:15:15;19.73;;;17.50;;
6372;SDS011;3219;51.362;7.074;2022-11-20T06:17:43;18.80;;;16.77;;
6372;SDS011;3219;51.362;7.074;2022-11-20T06:20:11;19.85;;;17.00;;
6372;SDS011;3219;51.362;7.074;2022-11-20T06:22:38;18.65;;;16.50;;
6372;SDS011;3219;51.362;7.074;2022-11-20T06:25:07;18.70;;;16.67;;
6372;SDS011;3219;51.362;7.074;2022-11-20T06:27:36;18.30;;;16.25;;
6372;SDS011;3219;51.362;7.074;2022-11-20T06:30:05;19.52;;;17.42;;
6372;SDS011;3219;51.362;7.074;2022-11-20T06:32:33;20.48;;;17.63;;
6372;SDS011;3219;51.362;7.074;2022-11-20T06:35:01;20.48;;;18.17;;
6372;SDS011;3219;51.362;7.074;2022-11-20T06:37:28;21.33;;;18.70;;
6372;SDS011;3219;51.362;7.074;2022-11-20T06:39:56;19.35;;;17.25;;
6372;SDS011;3219;51.362;7.074;2022-11-20T06:42:24;19.92;;;17.80;;
6372;SDS011;3219;51.362;7.074;2022-11-20T06:44:54;20.30;;;17.80;;
6372;SDS011;3219;51.362;7.074;2022-11-20T06:47:22;23.48;;;19.85;;
6372;SDS011;3219;51.362;7.074;2022-11-20T06:49:50;22.52;;;19.58;;
6372;SDS011;3219;51.362;7.074;2022-11-20T06:52:17;22.58;;;20.10;;
6372;SDS011;3219;51.362;7.074;2022-11-20T06:54:45;21.20;;;18.90;;
6372;SDS011;3219;51.362;7.074;2022-11-20T06:57:13;24.60;;;20.70;;
6372;SDS011;3219;51.362;7.074;2022-11-20T06:59:41;26.23;;;20.77;;
6372;SDS011;3219;51.362;7.074;2022-11-20T07:02:11;22.48;;;20.17;;
6372;SDS011;3219;51.362;7.074;2022-11-20T07:04:39;22.25;;;19.85;;
6372;SDS011;3219;51.362;7.074;2022-11-20T07:07:07;23.90;;;21.33;;
6372;SDS011;3219;51.362;7.074;2022-11-20T07:09:36;22.73;;;20.25;;
6372;SDS011;3219;51.362;7.074;2022-11-20T07:12:04;24.95;;;20.85;;
6372;SDS011;3219;51.362;7.074;2022-11-20T07:14:32;22.48;;;20.08;;
6372;SDS011;3219;51.362;7.074;2022-11-20T07:17:00;22.80;;;20.30;;
6372;SDS011;3219;51.362;7.074;2022-11-20T07:19:29;21.60;;;19.02;;
6372;SDS011;3219;51.362;7.074;2022-11-20T07:21:57;22.75;;;20.15;;
6372;SDS011;3219;51.362;7.074;2022-11-20T07:24:25;22.48;;;20.17;;
6372;SDS011;3219;51.362;7.074;2022-11-20T07:26:53;22.95;;;20.42;;
6372;SDS011;3219;51.362;7.074;2022-11-20T07:29:21;21.52;;;19.23;;
6372;SDS011;3219;51.362;7.074;2022-11-20T07:31:49;21.27;;;19.05;;
6372;SDS011;3219;51.362;7.074;2022-11-20T07:34:17;20.15;;;18.02;;
6372;SDS011;3219;51.362;7.074;2022-11-20T07:36:46;21.92;;;18.77;;
6372;SDS011;3219;51.362;7.074;2022-11-20T07:39:14;22.98;;;20.30;;
6372;SDS011;3219;51.362;7.074;2022-11-20T07:41:42;27.88;;;23.42;;
6372;SDS011;3219;51.362;7.074;2022-11-20T07:44:10;27.60;;;23.10;;
6372;SDS011;3219;51.362;7.074;2022-11-20T07:46:38;24.02;;;21.42;;
6372;SDS011;3219;51.362;7.074;2022-11-20T07:49:06;25.02;;;22.33;;
6372;SDS011;3219;51.362;7.074;2022-11-20T07:51:34;25.48;;;21.75;;
6372;SDS011;3219;51.362;7.074;2022-11-20T07:54:03;24.98;;;22.10;;
6372;SDS011;3219;51.362;7.074;2022-11-20T07:56:31;28.98;;;24.10;;
6372;SDS011;3219;51.362;7.074;2022-11-20T07:58:59;28.08;;;24.85;;
6372;SDS011;3219;51.362;7.074;2022-11-20T08:01:27;28.88;;;24.67;;
6372;SDS011;3219;51.362;7.074;2022-11-20T08:03:55;25.83;;;22.58;;
6372;SDS011;3219;51.362;7.074;2022-11-20T08:06:23;26.88;;;23.08;;
6372;SDS011;3219;51.362;7.074;2022-11-20T08:08:51;24.58;;;21.15;;
6372;SDS011;3219;51.362;7.074;2022-11-20T08:11:20;25.63;;;20.85;;
6372;SDS011;3219;51.362;7.074;2022-11-20T08:14:05;22.45;;;20.02;;
6372;SDS011;3219;51.362;7.074;2022-11-20T08:16:41;21.88;;;18.55;;
6372;SDS011;3219;51.362;7.074;2022-11-20T08:19:09;19.33;;;17.33;;
6372;SDS011;3219;51.362;7.074;2022-11-20T08:21:37;21.13;;;18.92;;
6372;SDS011;3219;51.362;7.074;2022-11-20T08:24:05;20.52;;;18.33;;
6372;SDS011;3219;51.362;7.074;2022-11-20T08:26:35;23.05;;;20.50;;
6372;SDS011;3219;51.362;7.074;2022-11-20T08:29:03;20.90;;;18.73;;
6372;SDS011;3219;51.362;7.074;2022-11-20T08:31:31;24.20;;;20.48;;
6372;SDS011;3219;51.362;7.074;2022-11-20T08:33:59;24.25;;;20.65;;
6372;SDS011;3219;51.362;7.074;2022-11-20T08:36:27;22.67;;;20.27;;
6372;SDS011;3219;51.362;7.074;2022-11-20T08:38:55;22.40;;;20.00;;
6372;SDS011;3219;51.362;7.074;2022-11-20T08:41:23;22.80;;;20.33;;
6372;SDS011;3219;51.362;7.074;2022-11-20T08:43:54;24.35;;;20.55;;
6372;SDS011;3219;51.362;7.074;2022-11-20T08:46:23;24.20;;;20.67;;
6372;SDS011;3219;51.362;7.074;2022-11-20T08:48:51;23.92;;;20.80;;
6372;SDS011;3219;51.362;7.074;2022-11-20T08:51:19;21.38;;;19.02;;
6372;SDS011;3219;51.362;7.074;2022-11-20T08:53:47;22.08;;;19.70;;
6372;SDS011;3219;51.362;7.074;2022-11-20T08:56:15;22.45;;;19.92;;
6372;SDS011;3219;51.362;7.074;2022-11-20T08:58:43;22.50;;;19.23;;
6372;SDS011;3219;51.362;7.074;2022-11-20T09:01:13;21.48;;;18.80;;
6372;SDS011;3219;51.362;7.074;2022-11-20T09:03:40;21.60;;;18.85;;
6372;SDS011;3219;51.362;7.074;2022-11-20T09:06:08;21.02;;;17.92;;
6372;SDS011;3219;51.362;7.074;2022-11-20T09:08:36;18.33;;;15.60;;
6372;SDS011;3219;51.362;7.074;2022-11-20T09:11:05;16.77;;;14.68;;
6372;SDS011;3219;51.362;7.074;2022-11-20T09:13:33;17.70;;;14.40;;
6372;SDS011;3219;51.362;7.074;2022-11-20T09:16:02;15.25;;;13.65;;
6372;SDS011;3219;51.362;7.074;2022-11-20T09:18:32;17.30;;;14.95;;
6372;SDS011;3219;51.362;7.074;2022-11-20T09:21:02;18.50;;;15.25;;
6372;SDS011;3219;51.362;7.074;2022-11-20T09:23:31;19.55;;;16.15;;
6372;SDS011;3219;51.362;7.074;2022-11-20T09:26:01;18.80;;;16.58;;
6372;SDS011;3219;51.362;7.074;2022-11-20T09:28:29;18.95;;;16.17;;
6372;SDS011;3219;51.362;7.074;2022-11-20T09:30:57;18.65;;;16.27;;
6372;SDS011;3219;51.362;7.074;2022-11-20T09:33:25;18.38;;;14.88;;
6372;SDS011;3219;51.362;7.074;2022-11-20T09:35:55;19.25;;;14.15;;
6372;SDS011;3219;51.362;7.074;2022-11-20T09:38:23;19.13;;;13.30;;
6372;SDS011;3219;51.362;7.074;2022-11-20T09:40:53;14.60;;;12.23;;
6372;SDS011;3219;51.362;7.074;2022-11-20T09:43:25;12.77;;;11.32;;
6372;SDS011;3219;51.362;7.074;2022-11-20T09:46:07;14.82;;;11.38;;
6372;SDS011;3219;51.362;7.074;2022-11-20T09:48:40;13.02;;;11.43;;
6372;SDS011;3219;51.362;7.074;2022-11-20T09:51:16;12.85;;;11.45;;
6372;SDS011;3219;51.362;7.074;2022-11-20T09:53:46;15.27;;;13.07;;
6372;SDS011;3219;51.362;7.074;2022-11-20T09:56:20;12.50;;;11.15;;
6372;SDS011;3219;51.362;7.074;2022-11-20T09:58:49;12.00;;;10.60;;
6372;SDS011;3219;51.362;7.074;2022-11-20T10:01:18;13.68;;;11.00;;
6372;SDS011;3219;51.362;7.074;2022-11-20T10:03:50;12.27;;;10.98;;
6372;SDS011;3219;51.362;7.074;2022-11-20T10:06:24;11.50;;;10.30;;
6372;SDS011;3219;51.362;7.074;2022-11-20T10:08:58;14.05;;;11.40;;
6372;SDS011;3219;51.362;7.074;2022-11-20T10:11:30;13.73;;;12.18;;
6372;SDS011;3219;51.362;7.074;2022-11-20T10:14:01;12.60;;;11.27;;
6372;SDS011;3219;51.362;7.074;2022-11-20T10:16:34;11.65;;;10.18;;
6372;SDS011;3219;51.362;7.074;2022-11-20T10:19:09;12.00;;;9.98;;
6372;SDS011;3219;51.362;7.074;2022-11-20T10:21:44;11.38;;;10.20;;
6372;SDS011;3219;51.362;7.074;2022-11-20T10:24:23;14.23;;;11.40;;
6372;SDS011;3219;51.362;7.074;2022-11-20T10:26:53;12.07;;;10.70;;
6372;SDS011;3219;51.362;7.074;2022-11-20T10:29:26;12.20;;;10.90;;
6372;SDS011;3219;51.362;7.074;2022-11-20T10:32:00;15.45;;;13.70;;
6372;SDS011;3219;51.362;7.074;2022-11-20T10:34:30;13.93;;;12.00;;
6372;SDS011;3219;51.362;7.074;2022-11-20T10:37:01;13.60;;;11.70;;
6372;SDS011;3219;51.362;7.074;2022-11-20T10:39:32;13.40;;;11.95;;
6372;SDS011;3219;51.362;7.074;2022-11-20T10:42:01;14.40;;;12.43;;
6372;SDS011;3219;51.362;7.074;2022-11-20T10:44:31;16.08;;;12.30;;
6372;SDS011;3219;51.362;7.074;2022-11-20T10:47:17;14.43;;;12.18;;
6372;SDS011;3219;51.362;7.074;2022-11-20T10:49:46;16.70;;;13.43;;
6372;SDS011;3219;51.362;7.074;2022-11-20T10:52:18;16.83;;;13.57;;
6372;SDS011;3219;51.362;7.074;2022-11-20T10:54:53;16.65;;;13.45;;
6372;SDS011;3219;51.362;7.074;2022-11-20T10:57:27;17.48;;;13.65;;
6372;SDS011;3219;51.362;7.074;2022-11-20T10:59:59;17.40;;;14.75;;
6372;SDS011;3219;51.362;7.074;2022-11-20T11:02:32;15.45;;;13.27;;
6372;SDS011;3219;51.362;7.074;2022-11-20T11:05:04;18.30;;;14.35;;
6372;SDS011;3219;51.362;7.074;2022-11-20T11:07:36;18.55;;;15.25;;
6372;SDS011;3219;51.362;7.074;2022-11-20T11:10:14;18.88;;;15.20;;
6372;SDS011;3219;51.362;7.074;2022-11-20T11:12:43;17.55;;;14.35;;
6372;SDS011;3219;51.362;7.074;2022-11-20T11:15:12;18.30;;;14.65;;
6372;SDS011;3219;51.362;7.074;2022-11-20T11:17:46;15.63;;;12.65;;
6372;SDS011;3219;51.362;7.074;2022-11-20T11:20:15;18.05;;;14.60;;
6372;SDS011;3219;51.362;7.074;2022-11-20T11:22:46;19.20;;;14.80;;
6372;SDS011;3219;51.362;7.074;2022-11-20T11:25:21;20.17;;;15.65;;
6372;SDS011;3219;51.362;7.074;2022-11-20T11:27:50;17.95;;;15.38;;
6372;SDS011;3219;51.362;7.074;2022-11-20T11:30:20;18.50;;;14.93;;
6372;SDS011;3219;51.362;7.074;2022-11-20T11:32:48;18.02;;;15.63;;
6372;SDS011;3219;51.362;7.074;2022-11-20T11:35:20;19.40;;;15.20;;
6372;SDS011;3219;51.362;7.074;2022-11-20T11:37:49;17.05;;;14.13;;
6372;SDS011;3219;51.362;7.074;2022-11-20T11:40:19;18.38;;;15.57;;
6372;SDS011;3219;51.362;7.074;2022-11-20T11:42:51;17.05;;;14.95;;
6372;SDS011;3219;51.362;7.074;2022-11-20T11:45:20;19.70;;;16.92;;
6372;SDS011;3219;51.362;7.074;2022-11-20T11:47:48;18.23;;;15.55;;
6372;SDS011;3219;51.362;7.074;2022-11-20T11:50:17;17.17;;;14.95;;
6372;SDS011;3219;51.362;7.074;2022-11-20T11:55:34;19.85;;;16.05;;
6372;SDS011;3219;51.362;7.074;2022-11-20T11:58:11;17.83;;;15.50;;
6372;SDS011;3219;51.362;7.074;2022-11-20T12:00:40;19.85;;;15.43;;
6372;SDS011;3219;51.362;7.074;2022-11-20T12:03:11;20.77;;;16.05;;
6372;SDS011;3219;51.362;7.074;2022-11-20T12:05:42;19.47;;;15.80;;
6372;SDS011;3219;51.362;7.074;2022-11-20T12:08:12;19.98;;;16.27;;
6372;SDS011;3219;51.362;7.074;2022-11-20T12:10:45;22.10;;;16.50;;
6372;SDS011;3219;51.362;7.074;2022-11-20T12:13:21;22.15;;;17.08;;
6372;SDS011;3219;51.362;7.074;2022-11-20T12:15:52;21.17;;;17.42;;
6372;SDS011;3219;51.362;7.074;2022-11-20T12:18:21;21.45;;;17.42;;
6372;SDS011;3219;51.362;7.074;2022-11-20T12:20:53;21.52;;;18.00;;
6372;SDS011;3219;51.362;7.074;2022-11-20T12:23:26;22.13;;;17.38;;
6372;SDS011;3219;51.362;7.074;2022-11-20T12:25:57;20.13;;;17.15;;
6372;SDS011;3219;51.362;7.074;2022-11-20T12:28:29;25.70;;;19.27;;
6372;SDS011;3219;51.362;7.074;2022-11-20T12:31:05;23.05;;;19.42;;
6372;SDS011;3219;51.362;7.074;2022-11-20T12:33:48;21.58;;;17.60;;
6372;SDS011;3219;51.362;7.074;2022-11-20T12:38:52;23.15;;;19.38;;
6372;SDS011;3219;51.362;7.074;2022-11-20T12:41:27;23.88;;;20.13;;
6372;SDS011;3219;51.362;7.074;2022-11-20T12:44:19;25.88;;;20.38;;
6372;SDS011;3219;51.362;7.074;2022-11-20T12:47:14;23.58;;;19.35;;
6372;SDS011;3219;51.362;7.074;2022-11-20T12:49:46;26.00;;;21.02;;
6372;SDS011;3219;51.362;7.074;2022-11-20T12:52:20;23.50;;;20.80;;
6372;SDS011;3219;51.362;7.074;2022-11-20T12:54:55;23.50;;;20.13;;
6372;SDS011;3219;51.362;7.074;2022-11-20T12:57:29;25.45;;;21.30;;
6372;SDS011;3219;51.362;7.074;2022-11-20T13:00:07;28.15;;;22.10;;
6372;SDS011;3219;51.362;7.074;2022-11-20T13:02:38;25.00;;;21.50;;
6372;SDS011;3219;51.362;7.074;2022-11-20T13:05:18;24.25;;;21.05;;
6372;SDS011;3219;51.362;7.074;2022-11-20T13:07:47;24.55;;;21.48;;
6372;SDS011;3219;51.362;7.074;2022-11-20T13:10:18;27.00;;;22.55;;
6372;SDS011;3219;51.362;7.074;2022-11-20T13:12:51;25.63;;;20.92;;
6372;SDS011;3219;51.362;7.074;2022-11-20T13:15:26;28.02;;;21.58;;
6372;SDS011;3219;51.362;7.074;2022-11-20T13:17:58;26.27;;;20.77;;
6372;SDS011;3219;51.362;7.074;2022-11-20T13:20:26;25.10;;;19.95;;
6372;SDS011;3219;51.362;7.074;2022-11-20T13:22:55;26.25;;;21.42;;
6372;SDS011;3219;51.362;7.074;2022-11-20T13:25:24;25.40;;;21.13;;
6372;SDS011;3219;51.362;7.074;2022-11-20T13:27:53;26.48;;;21.60;;
6372;SDS011;3219;51.362;7.074;2022-11-20T13:30:22;27.10;;;20.95;;
6372;SDS011;3219;51.362;7.074;2022-11-20T13:32:51;30.45;;;22.40;;
6372;SDS011;3219;51.362;7.074;2022-11-20T13:35:27;28.10;;;21.95;;
6372;SDS011;3219;51.362;7.074;2022-11-20T13:37:59;25.95;;;20.20;;
6372;SDS011;3219;51.362;7.074;2022-11-20T13:40:27;25.20;;;20.67;;
6372;SDS011;3219;51.362;7.074;2022-11-20T13:43:01;26.05;;;21.40;;
6372;SDS011;3219;51.362;7.074;2022-11-20T13:45:30;25.27;;;20.77;;
6372;SDS011;3219;51.362;7.074;2022-11-20T13:48:00;28.00;;;21.80;;
6372;SDS011;3219;51.362;7.074;2022-11-20T13:50:39;27.67;;;21.08;;
6372;SDS011;3219;51.362;7.074;2022-11-20T13:53:11;29.05;;;22.75;;
6372;SDS011;3219;51.362;7.074;2022-11-20T13:55:45;24.42;;;20.50;;
6372;SDS011;3219;51.362;7.074;2022-11-20T13:58:24;24.73;;;20.05;;
6372;SDS011;3219;51.362;7.074;2022-11-20T14:00:57;25.52;;;20.25;;
6372;SDS011;3219;51.362;7.074;2022-11-20T14:03:26;28.40;;;22.02;;
6372;SDS011;3219;51.362;7.074;2022-11-20T14:05:57;28.30;;;21.20;;
6372;SDS011;3219;51.362;7.074;2022-11-20T14:08:28;28.07;;;21.27;;
6372;SDS011;3219;51.362;7.074;2022-11-20T14:11:05;26.95;;;21.33;;
6372;SDS011;3219;51.362;7.074;2022-11-20T14:13:35;30.65;;;22.42;;
6372;SDS011;3219;51.362;7.074;2022-11-20T14:16:03;25.35;;;20.48;;
6372;SDS011;3219;51.362;7.074;2022-11-20T14:18:31;32.15;;;21.60;;
6372;SDS011;3219;51.362;7.074;2022-11-20T14:21:00;25.88;;;21.35;;
6372;SDS011;3219;51.362;7.074;2022-11-20T14:23:28;28.23;;;22.15;;
6372;SDS011;3219;51.362;7.074;2022-11-20T14:25:57;25.17;;;21.50;;
6372;SDS011;3219;51.362;7.074;2022-11-20T14:28:25;28.73;;;22.20;;
6372;SDS011;3219;51.362;7.074;2022-11-20T14:30:55;29.08;;;22.55;;
6372;SDS011;3219;51.362;7.074;2022-11-20T14:33:25;28.00;;;22.13;;
6372;SDS011;3219;51.362;7.074;2022-11-20T14:35:53;27.40;;;23.17;;
6372;SDS011;3219;51.362;7.074;2022-11-20T14:38:24;29.70;;;23.15;;
6372;SDS011;3219;51.362;7.074;2022-11-20T14:40:52;31.90;;;24.63;;
6372;SDS011;3219;51.362;7.074;2022-11-20T14:43:22;29.88;;;23.90;;
6372;SDS011;3219;51.362;7.074;2022-11-20T14:45:54;25.77;;;21.88;;
6372;SDS011;3219;51.362;7.074;2022-11-20T14:48:26;29.23;;;22.75;;
6372;SDS011;3219;51.362;7.074;2022-11-20T14:50:56;29.98;;;23.52;;
6372;SDS011;3219;51.362;7.074;2022-11-20T14:53:24;30.10;;;23.85;;
6372;SDS011;3219;51.362;7.074;2022-11-20T14:55:56;29.58;;;23.85;;
6372;SDS011;3219;51.362;7.074;2022-11-20T14:58:25;29.80;;;23.50;;
6372;SDS011;3219;51.362;7.074;2022-11-20T15:00:54;32.92;;;24.10;;
6372;SDS011;3219;51.362;7.074;2022-11-20T15:03:22;33.58;;;23.77;;
6372;SDS011;3219;51.362;7.074;2022-11-20T15:05:52;34.72;;;22.98;;
6372;SDS011;3219;51.362;7.074;2022-11-20T15:08:20;32.60;;;24.40;;